Time;durP1;ratioP1;P1;durP2;ratioP2;P2;SDS_P1;SDS_P2;PMS_P1;PMS_P2;Temp;Humidity;BMP_temperature;BMP_pressure;BME280_temperature;BME280_humidity;BME280_pressure;Samples;Min_cycle;Max_cycle;Signal;HPM_P1;HPM_P2
2023/02/09 00:02:00;;;;;;;5.37;4.30;;;;;;;;;;5020797;28;20218;-53
2023/02/09 00:04:26;;;;;;;5.63;4.37;;;;;;;;;;5019988;28;20181;-53
2023/02/09 00:06:52;;;;;;;5.37;4.30;;;;;;;;;;5032242;28;20648;-54
2023/02/09 00:09:18;;;;;;;5.10;4.00;;;;;;;;;;5027690;28;20260;-53
2023/02/09 00:14:31;;;;;;;6.43;4.00;;;;;;;;;;5033585;28;20177;-54
2023/02/09 00:16:57;;;;;;;6.30;4.33;;;;;;;;;;5031477;28;20696;-54
2023/02/09 00:19:23;;;;;;;4.73;3.97;;;;;;;;;;5023259;28;20229;-53
2023/02/09 00:21:49;;;;;;;5.60;4.67;;;;;;;;;;5018967;28;20217;-54
2023/02/09 00:24:15;;;;;;;5.93;4.60;;;;;;;;;;5013143;28;20291;-54
2023/02/09 00:26:41;;;;;;;5.30;4.10;;;;;;;;;;5029263;28;20198;-54
2023/02/09 00:29:07;;;;;;;6.13;4.40;;;;;;;;;;5025479;28;20248;-54
2023/02/09 00:31:34;;;;;;;6.23;4.43;;;;;;;;;;5028346;28;20185;-53
2023/02/09 00:34:00;;;;;;;5.80;4.23;;;;;;;;;;5026742;28;20292;-54
2023/02/09 00:36:26;;;;;;;6.80;4.40;;;;;;;;;;5021857;28;20170;-53
2023/02/09 00:38:52;;;;;;;6.40;4.73;;;;;;;;;;5027610;28;20532;-54
2023/02/09 00:42:04;;;;;;;6.43;4.53;;;;;;;;;;5026859;28;20640;-54
2023/02/09 00:44:05;;;;;;;6.73;4.43;;;;;;;;;;5025095;28;20194;-53
2023/02/09 00:46:31;;;;;;;6.53;4.80;;;;;;;;;;5014686;28;20269;-53
2023/02/09 00:48:57;;;;;;;5.10;4.23;;;;;;;;;;5019777;28;20275;-54
2023/02/09 00:51:23;;;;;;;4.93;4.43;;;;;;;;;;5028323;28;20174;-54
2023/02/09 00:53:49;;;;;;;7.70;4.60;;;;;;;;;;5024897;28;20182;-54
2023/02/09 00:56:15;;;;;;;9.33;4.80;;;;;;;;;;5027408;28;20256;-54
2023/02/09 00:58:41;;;;;;;6.47;4.60;;;;;;;;;;5025662;28;20191;-53
2023/02/09 01:01:12;;;;;;;5.07;4.30;;;;;;;;;;5017140;28;20440;-53
2023/02/09 01:03:38;;;;;;;5.93;4.67;;;;;;;;;;5019863;28;20675;-53
2023/02/09 01:06:04;;;;;;;7.60;5.17;;;;;;;;;;5021949;28;20408;-54
2023/02/09 01:08:30;;;;;;;6.40;4.27;;;;;;;;;;5028496;28;20202;-53
2023/02/09 01:10:56;;;;;;;6.10;4.77;;;;;;;;;;5010427;28;20432;-54
2023/02/09 01:13:22;;;;;;;7.20;4.97;;;;;;;;;;5029847;28;20404;-53
2023/02/09 01:15:48;;;;;;;5.33;4.63;;;;;;;;;;5011303;28;20182;-54
2023/02/09 01:18:14;;;;;;;6.07;4.60;;;;;;;;;;5014482;28;20443;-54
2023/02/09 01:20:41;;;;;;;6.63;4.90;;;;;;;;;;5026974;28;20479;-54
2023/02/09 01:23:07;;;;;;;6.40;5.10;;;;;;;;;;5028938;28;20440;-53
2023/02/09 01:25:33;;;;;;;7.37;5.30;;;;;;;;;;5021408;28;20261;-52
2023/02/09 01:27:59;;;;;;;7.30;5.07;;;;;;;;;;5025788;28;20518;-53
2023/02/09 01:30:26;;;;;;;6.47;5.07;;;;;;;;;;5028720;28;20432;-53
2023/02/09 01:32:52;;;;;;;7.10;5.13;;;;;;;;;;5028689;28;20194;-53
2023/02/09 01:35:18;;;;;;;7.63;4.77;;;;;;;;;;5028842;28;20433;-54
2023/02/09 01:37:44;;;;;;;6.43;5.23;;;;;;;;;;5029792;28;20267;-53
2023/02/09 01:40:10;;;;;;;6.73;5.07;;;;;;;;;;5030210;28;20173;-54
2023/02/09 01:42:36;;;;;;;6.47;4.67;;;;;;;;;;5026444;28;20433;-54
2023/02/09 01:45:06;;;;;;;7.43;5.60;;;;;;;;;;5011880;28;20433;-53
2023/02/09 01:47:32;;;;;;;5.63;4.60;;;;;;;;;;5025708;28;20943;-52
2023/02/09 01:49:58;;;;;;;7.00;5.10;;;;;;;;;;5029210;28;20899;-54
2023/02/09 01:52:25;;;;;;;5.73;4.90;;;;;;;;;;5025937;28;20635;-53
2023/02/09 01:54:58;;;;;;;6.67;5.37;;;;;;;;;;5026210;28;20441;-53
2023/02/09 01:57:26;;;;;;;6.40;5.33;;;;;;;;;;5020558;28;20542;-54
2023/02/09 01:59:55;;;;;;;5.83;5.03;;;;;;;;;;5025971;28;20926;-54
2023/02/09 02:02:22;;;;;;;5.93;4.80;;;;;;;;;;5024883;28;20475;-54
2023/02/09 02:04:49;;;;;;;6.83;4.93;;;;;;;;;;5021577;28;20912;-53
2023/02/09 02:07:35;;;;;;;6.80;5.20;;;;;;;;;;5015359;28;20524;-52
2023/02/09 02:10:01;;;;;;;6.80;5.30;;;;;;;;;;5010341;28;21158;-53
2023/02/09 02:12:28;;;;;;;8.67;5.37;;;;;;;;;;5007838;28;20420;-53
2023/02/09 02:14:54;;;;;;;6.57;4.70;;;;;;;;;;5014253;28;20930;-51
2023/02/09 02:17:32;;;;;;;7.63;5.73;;;;;;;;;;5011614;28;20191;-54
2023/02/09 02:20:17;;;;;;;6.30;4.80;;;;;;;;;;5020674;28;20515;-53
2023/02/09 02:23:03;;;;;;;7.53;4.93;;;;;;;;;;5010509;28;20420;-54
2023/02/09 02:25:34;;;;;;;6.43;4.73;;;;;;;;;;5011499;28;20482;-53
2023/02/09 02:28:27;;;;;;;6.63;4.90;;;;;;;;;;5009631;28;20467;-53
2023/02/09 02:31:05;;;;;;;6.43;5.03;;;;;;;;;;5004614;28;20778;-53
2023/02/09 02:33:49;;;;;;;6.57;5.37;;;;;;;;;;5015182;28;20440;-53
2023/02/09 02:36:25;;;;;;;7.07;5.27;;;;;;;;;;5025568;28;20869;-53
2023/02/09 02:39:00;;;;;;;8.80;5.80;;;;;;;;;;5021903;28;20432;-54
2023/02/09 02:42:46;;;;;;;7.07;4.90;;;;;;;;;;5023772;28;20429;-53
2023/02/09 02:44:17;;;;;;;7.10;5.50;;;;;;;;;;5029699;28;20548;-54
2023/02/09 02:46:46;;;;;;;7.57;5.77;;;;;;;;;;5035820;28;20856;-52
2023/02/09 02:49:24;;;;;;;7.17;4.87;;;;;;;;;;5024420;28;20495;-54
2023/02/09 02:51:53;;;;;;;6.63;5.37;;;;;;;;;;5023248;28;20425;-54
2023/02/09 02:54:23;;;;;;;6.77;5.13;;;;;;;;;;5027061;28;20547;-54
2023/02/09 02:56:50;;;;;;;7.47;5.17;;;;;;;;;;5031487;28;20506;-54
2023/02/09 02:59:19;;;;;;;5.30;4.33;;;;;;;;;;5026446;28;20519;-52
2023/02/09 03:01:49;;;;;;;5.47;4.37;;;;;;;;;;5031696;28;20923;-54
2023/02/09 03:04:15;;;;;;;6.43;5.00;;;;;;;;;;5031650;28;20436;-54
2023/02/09 03:06:41;;;;;;;8.37;5.87;;;;;;;;;;5024855;28;20428;-54
2023/02/09 03:09:07;;;;;;;6.20;4.70;;;;;;;;;;5019229;28;20209;-54
2023/02/09 03:11:41;;;;;;;6.27;4.83;;;;;;;;;;5029928;28;20182;-53
2023/02/09 03:14:12;;;;;;;9.07;6.27;;;;;;;;;;5019956;28;20584;-53
2023/02/09 03:16:50;;;;;;;5.80;4.90;;;;;;;;;;5032452;28;20403;-54
2023/02/09 03:19:16;;;;;;;7.80;5.73;;;;;;;;;;5020012;28;20443;-54
2023/02/09 03:21:42;;;;;;;6.93;5.03;;;;;;;;;;5031756;28;20797;-54
2023/02/09 03:24:08;;;;;;;7.40;5.73;;;;;;;;;;5031585;28;20182;-54
2023/02/09 03:26:39;;;;;;;6.60;5.17;;;;;;;;;;5030983;28;20166;-53
2023/02/09 03:29:06;;;;;;;8.77;5.77;;;;;;;;;;5027354;28;20232;-53
2023/02/09 03:31:32;;;;;;;7.10;5.23;;;;;;;;;;5024989;28;20417;-52
2023/02/09 03:33:59;;;;;;;6.77;5.13;;;;;;;;;;5018286;28;20426;-54
2023/02/09 03:36:31;;;;;;;8.93;4.93;;;;;;;;;;5013230;28;20417;-54
2023/02/09 03:38:57;;;;;;;9.40;6.37;;;;;;;;;;5032493;28;20767;-53
2023/02/09 03:41:23;;;;;;;6.40;5.20;;;;;;;;;;5027300;28;20869;-54
2023/02/09 03:46:33;;;;;;;6.33;5.40;;;;;;;;;;5029222;28;20492;-53
2023/02/09 03:48:59;;;;;;;7.50;5.23;;;;;;;;;;5030773;28;20222;-53
2023/02/09 03:51:25;;;;;;;6.60;5.37;;;;;;;;;;5030873;28;20439;-54
2023/02/09 03:53:51;;;;;;;6.27;4.90;;;;;;;;;;5022564;28;20475;-53
2023/02/09 03:56:17;;;;;;;7.03;5.03;;;;;;;;;;5024546;28;20441;-53
2023/02/09 03:58:43;;;;;;;8.90;6.40;;;;;;;;;;5018237;28;21082;-53
2023/02/09 04:01:10;;;;;;;6.93;6.10;;;;;;;;;;5022646;28;20436;-53
2023/02/09 04:03:38;;;;;;;8.63;4.93;;;;;;;;;;5030424;28;20222;-53
2023/02/09 04:06:05;;;;;;;7.80;5.73;;;;;;;;;;5030799;28;20416;-53
2023/02/09 04:08:32;;;;;;;7.47;5.67;;;;;;;;;;5023760;28;20607;-53
2023/02/09 04:10:59;;;;;;;10.23;6.73;;;;;;;;;;5026873;28;20432;-53
2023/02/09 04:13:25;;;;;;;6.63;5.10;;;;;;;;;;5019087;28;20478;-53
2023/02/09 04:15:51;;;;;;;7.60;5.53;;;;;;;;;;5030312;28;20827;-53
2023/02/09 04:18:18;;;;;;;8.93;6.70;;;;;;;;;;5024697;28;20418;-54
2023/02/09 04:20:44;;;;;;;8.97;6.10;;;;;;;;;;5029034;28;20475;-53
2023/02/09 04:23:10;;;;;;;8.97;6.20;;;;;;;;;;5028762;28;20778;-53
2023/02/09 04:25:36;;;;;;;8.50;6.10;;;;;;;;;;5025998;28;20198;-54
2023/02/09 04:28:02;;;;;;;6.27;5.00;;;;;;;;;;5027656;28;20464;-54
2023/02/09 04:30:28;;;;;;;11.07;5.90;;;;;;;;;;5027496;28;20934;-53
2023/02/09 04:32:54;;;;;;;6.53;5.70;;;;;;;;;;5025286;28;20432;-54
2023/02/09 04:35:20;;;;;;;7.17;6.33;;;;;;;;;;5029634;28;20425;-53
2023/02/09 04:37:46;;;;;;;7.87;5.77;;;;;;;;;;5020597;28;20197;-53
2023/02/09 04:40:12;;;;;;;8.10;6.10;;;;;;;;;;5024237;28;20432;-54
2023/02/09 04:42:38;;;;;;;7.87;5.70;;;;;;;;;;5027029;28;20223;-53
2023/02/09 04:45:05;;;;;;;8.33;5.70;;;;;;;;;;5019293;28;20770;-54
2023/02/09 04:47:31;;;;;;;6.90;5.60;;;;;;;;;;5023329;28;20460;-53
2023/02/09 04:49:57;;;;;;;7.87;6.00;;;;;;;;;;5028897;28;20916;-53
2023/02/09 04:52:23;;;;;;;7.33;5.83;;;;;;;;;;5026772;28;20425;-53
2023/02/09 04:54:49;;;;;;;8.87;6.13;;;;;;;;;;5024195;28;20452;-54
2023/02/09 05:00:00;;;;;;;8.07;6.07;;;;;;;;;;5023479;28;20412;-53
2023/02/09 05:02:26;;;;;;;9.63;5.70;;;;;;;;;;5024559;28;20465;-53
2023/02/09 05:04:52;;;;;;;7.93;6.33;;;;;;;;;;5040325;28;20409;-53
2023/02/09 05:07:18;;;;;;;10.47;6.70;;;;;;;;;;5030229;28;20459;-54
2023/02/09 05:09:44;;;;;;;8.43;6.10;;;;;;;;;;5024283;28;20491;-53
2023/02/09 05:12:10;;;;;;;8.83;6.60;;;;;;;;;;5029519;28;20824;-53
2023/02/09 05:14:36;;;;;;;8.00;6.27;;;;;;;;;;5024697;28;20177;-53
2023/02/09 05:17:02;;;;;;;8.57;6.83;;;;;;;;;;5029727;28;20884;-54
2023/02/09 05:19:28;;;;;;;9.77;6.83;;;;;;;;;;5028180;28;20424;-54
2023/02/09 05:21:54;;;;;;;7.60;5.63;;;;;;;;;;5030299;28;20436;-53
2023/02/09 05:24:23;;;;;;;7.57;5.97;;;;;;;;;;5030405;28;20428;-54
2023/02/09 05:26:49;;;;;;;9.03;6.60;;;;;;;;;;5030335;28;20903;-54
2023/02/09 05:29:15;;;;;;;9.30;6.47;;;;;;;;;;5017474;28;20519;-54
2023/02/09 05:31:41;;;;;;;8.70;6.67;;;;;;;;;;5021562;28;20754;-54
2023/02/09 05:34:07;;;;;;;10.50;7.13;;;;;;;;;;5026967;28;20971;-53
2023/02/09 05:36:36;;;;;;;8.70;6.40;;;;;;;;;;5027747;28;20428;-53
2023/02/09 05:39:03;;;;;;;11.03;7.30;;;;;;;;;;5014501;28;20893;-53
2023/02/09 05:44:14;;;;;;;9.30;5.90;;;;;;;;;;5018186;28;20933;-53
2023/02/09 05:46:40;;;;;;;8.77;6.27;;;;;;;;;;5015149;28;20432;-52
2023/02/09 05:49:06;;;;;;;7.77;5.70;;;;;;;;;;5016608;28;20457;-54
2023/02/09 05:51:32;;;;;;;6.93;6.20;;;;;;;;;;5026290;28;20434;-54
2023/02/09 05:53:58;;;;;;;10.00;6.67;;;;;;;;;;5036452;28;20471;-53
2023/02/09 05:56:24;;;;;;;9.43;7.03;;;;;;;;;;5022106;28;21035;-54
2023/02/09 05:58:50;;;;;;;9.20;6.67;;;;;;;;;;5018432;28;20977;-53
2023/02/09 06:01:16;;;;;;;9.83;6.80;;;;;;;;;;5022426;28;20432;-54
2023/02/09 06:03:42;;;;;;;11.83;7.03;;;;;;;;;;5028939;28;20476;-54
2023/02/09 06:06:08;;;;;;;9.07;6.87;;;;;;;;;;5027646;28;20920;-54
2023/02/09 06:08:34;;;;;;;9.57;6.50;;;;;;;;;;5019044;28;20465;-53
2023/02/09 06:11:01;;;;;;;9.63;6.70;;;;;;;;;;5025110;28;20438;-54
2023/02/09 06:13:27;;;;;;;7.40;5.90;;;;;;;;;;5024074;28;20433;-54
2023/02/09 06:15:53;;;;;;;10.27;7.10;;;;;;;;;;5021621;28;20464;-53
2023/02/09 06:18:19;;;;;;;8.53;6.47;;;;;;;;;;5016100;28;20541;-53
2023/02/09 06:20:45;;;;;;;8.53;6.60;;;;;;;;;;5023752;28;20936;-54
2023/02/09 06:23:11;;;;;;;9.57;6.63;;;;;;;;;;5015377;28;20421;-53
2023/02/09 06:25:38;;;;;;;11.63;7.27;;;;;;;;;;5021037;28;20435;-54
2023/02/09 06:28:04;;;;;;;10.07;7.20;;;;;;;;;;5021534;28;21045;-53
2023/02/09 06:30:30;;;;;;;9.23;7.17;;;;;;;;;;5007829;28;20424;-52
2023/02/09 06:32:56;;;;;;;8.87;7.00;;;;;;;;;;5027984;28;20412;-53
2023/02/09 06:35:22;;;;;;;9.43;7.00;;;;;;;;;;5018637;28;20432;-53
2023/02/09 06:37:48;;;;;;;10.23;7.23;;;;;;;;;;5027481;28;20416;-53
2023/02/09 06:40:15;;;;;;;8.40;7.07;;;;;;;;;;5020040;28;20413;-54
2023/02/09 06:42:43;;;;;;;9.00;6.63;;;;;;;;;;5026999;28;20508;-54
2023/02/09 06:45:10;;;;;;;10.93;7.43;;;;;;;;;;5018082;28;20524;-54
2023/02/09 06:47:36;;;;;;;8.93;6.77;;;;;;;;;;5026601;28;20468;-54
2023/02/09 06:50:03;;;;;;;8.53;6.70;;;;;;;;;;5026321;28;20437;-54
2023/02/09 06:52:29;;;;;;;9.33;6.70;;;;;;;;;;5023140;28;20433;-54
2023/02/09 06:54:55;;;;;;;9.57;6.47;;;;;;;;;;5031234;28;20767;-54
2023/02/09 06:57:21;;;;;;;8.90;6.50;;;;;;;;;;5023679;28;20433;-54
2023/02/09 06:59:47;;;;;;;8.90;6.87;;;;;;;;;;5039579;28;20711;-52
2023/02/09 07:02:13;;;;;;;8.83;7.07;;;;;;;;;;5035497;28;20483;-53
2023/02/09 07:04:39;;;;;;;8.63;6.43;;;;;;;;;;5036458;28;20751;-54
2023/02/09 07:07:05;;;;;;;7.97;6.43;;;;;;;;;;5031171;28;20416;-54
2023/02/09 07:09:31;;;;;;;10.87;7.63;;;;;;;;;;5035820;28;20932;-54
2023/02/09 07:11:57;;;;;;;11.17;7.03;;;;;;;;;;5038188;28;20890;-54
2023/02/09 07:14:23;;;;;;;11.93;7.10;;;;;;;;;;5035847;28;20523;-54
2023/02/09 07:16:49;;;;;;;9.80;7.77;;;;;;;;;;5034655;28;20432;-54
2023/02/09 07:19:15;;;;;;;10.90;7.60;;;;;;;;;;5017507;28;20410;-54
2023/02/09 07:21:41;;;;;;;9.17;7.53;;;;;;;;;;5023513;28;20444;-53
2023/02/09 07:24:07;;;;;;;9.03;7.27;;;;;;;;;;5029191;28;20435;-54
2023/02/09 07:26:33;;;;;;;11.43;8.60;;;;;;;;;;5027945;28;20472;-53
2023/02/09 07:29:00;;;;;;;9.27;6.77;;;;;;;;;;5031603;28;20487;-54
2023/02/09 07:31:26;;;;;;;10.20;7.33;;;;;;;;;;5032682;28;20873;-54
2023/02/09 07:33:54;;;;;;;9.73;7.27;;;;;;;;;;5032536;28;20879;-54
2023/02/09 07:36:20;;;;;;;10.13;7.33;;;;;;;;;;5032257;28;20767;-54
2023/02/09 07:38:46;;;;;;;10.23;7.97;;;;;;;;;;5032091;28;20416;-54
2023/02/09 07:41:16;;;;;;;10.60;7.77;;;;;;;;;;5031027;28;20401;-54
2023/02/09 07:43:43;;;;;;;8.97;7.83;;;;;;;;;;5031955;28;20411;-54
2023/02/09 07:46:09;;;;;;;9.47;7.40;;;;;;;;;;5032179;28;20804;-53
2023/02/09 07:48:36;;;;;;;9.77;7.40;;;;;;;;;;5031555;28;20456;-54
2023/02/09 07:51:03;;;;;;;8.63;6.70;;;;;;;;;;5032117;28;20413;-54
2023/02/09 07:53:29;;;;;;;9.13;7.10;;;;;;;;;;5032417;28;20790;-54
2023/02/09 07:55:55;;;;;;;10.00;7.17;;;;;;;;;;5031043;28;20431;-54
2023/02/09 07:58:22;;;;;;;11.00;8.23;;;;;;;;;;5031842;28;20652;-55
2023/02/09 08:00:49;;;;;;;9.00;7.30;;;;;;;;;;5031898;28;20405;-54
2023/02/09 08:03:16;;;;;;;10.03;7.43;;;;;;;;;;5031622;28;20468;-54
2023/02/09 08:05:48;;;;;;;11.40;8.93;;;;;;;;;;5031715;28;20420;-54
2023/02/09 08:08:14;;;;;;;11.30;7.13;;;;;;;;;;5031925;28;20826;-54
2023/02/09 08:10:40;;;;;;;11.27;8.07;;;;;;;;;;5030682;28;20420;-55
2023/02/09 08:13:07;;;;;;;10.90;8.07;;;;;;;;;;5031269;28;20396;-54
2023/02/09 08:15:33;;;;;;;9.17;7.10;;;;;;;;;;5031762;28;20701;-54
2023/02/09 08:18:01;;;;;;;9.87;6.67;;;;;;;;;;5031801;28;20401;-54
2023/02/09 08:20:29;;;;;;;10.23;7.60;;;;;;;;;;5031327;28;20178;-54
2023/02/09 08:22:56;;;;;;;10.70;7.70;;;;;;;;;;5031640;28;20466;-54
2023/02/09 08:25:23;;;;;;;10.80;7.93;;;;;;;;;;5031206;28;20484;-54
2023/02/09 08:27:49;;;;;;;8.23;6.83;;;;;;;;;;5030496;28;20452;-53
2023/02/09 08:30:16;;;;;;;10.10;7.97;;;;;;;;;;5031528;28;20732;-54
2023/02/09 08:32:43;;;;;;;9.30;7.60;;;;;;;;;;5031124;28;20407;-54
2023/02/09 08:35:09;;;;;;;10.03;7.90;;;;;;;;;;5031705;28;20416;-54
2023/02/09 08:37:35;;;;;;;11.80;8.57;;;;;;;;;;5031186;28;20397;-54
2023/02/09 08:40:01;;;;;;;10.53;7.43;;;;;;;;;;5030915;28;20389;-55
2023/02/09 08:42:27;;;;;;;10.33;7.43;;;;;;;;;;5030765;28;20932;-54
2023/02/09 08:44:53;;;;;;;10.43;7.60;;;;;;;;;;5030976;28;20397;-54
2023/02/09 08:47:19;;;;;;;12.63;8.03;;;;;;;;;;5031250;28;20400;-53
2023/02/09 08:49:45;;;;;;;10.67;7.53;;;;;;;;;;5030557;28;20452;-54
2023/02/09 08:52:12;;;;;;;10.57;7.40;;;;;;;;;;5031028;28;20396;-54
2023/02/09 08:54:38;;;;;;;10.43;7.73;;;;;;;;;;5030849;28;20393;-54
2023/02/09 08:57:04;;;;;;;12.40;7.77;;;;;;;;;;5030628;28;20444;-54
2023/02/09 08:59:30;;;;;;;14.33;8.53;;;;;;;;;;5030348;28;20892;-54
2023/02/09 09:01:56;;;;;;;12.30;8.27;;;;;;;;;;5030619;28;20455;-55
2023/02/09 09:04:22;;;;;;;14.23;8.47;;;;;;;;;;5030496;28;20393;-53
2023/02/09 09:06:48;;;;;;;12.47;8.53;;;;;;;;;;5030850;28;20741;-54
2023/02/09 09:09:14;;;;;;;12.73;7.93;;;;;;;;;;5030845;28;20958;-53
2023/02/09 09:11:41;;;;;;;10.93;8.50;;;;;;;;;;5029958;28;20873;-54
2023/02/09 09:14:07;;;;;;;10.77;7.90;;;;;;;;;;5030216;28;20385;-54
2023/02/09 09:16:33;;;;;;;11.83;9.07;;;;;;;;;;5012303;28;20531;-54
2023/02/09 09:18:59;;;;;;;10.60;8.07;;;;;;;;;;5030182;28;20491;-53
2023/02/09 09:21:25;;;;;;;11.63;8.70;;;;;;;;;;5030194;28;20416;-54
2023/02/09 09:23:51;;;;;;;11.73;8.80;;;;;;;;;;5030140;28;20405;-54
2023/02/09 09:26:17;;;;;;;11.90;8.03;;;;;;;;;;5029171;28;20409;-55
2023/02/09 09:28:44;;;;;;;12.43;9.07;;;;;;;;;;5029797;28;20492;-54
2023/02/09 09:31:11;;;;;;;11.90;8.73;;;;;;;;;;5030015;28;20401;-54
2023/02/09 09:33:37;;;;;;;12.40;9.07;;;;;;;;;;5030080;28;20393;-54
2023/02/09 09:36:04;;;;;;;12.73;8.67;;;;;;;;;;5030408;28;20432;-54
2023/02/09 09:38:30;;;;;;;18.27;8.87;;;;;;;;;;5030066;28;20389;-54
2023/02/09 09:40:56;;;;;;;11.83;9.10;;;;;;;;;;5028917;28;20412;-54
2023/02/09 09:43:26;;;;;;;11.90;7.97;;;;;;;;;;5029297;28;20412;-54
2023/02/09 09:45:52;;;;;;;12.77;8.63;;;;;;;;;;5029801;28;20499;-55
2023/02/09 09:48:38;;;;;;;12.20;8.97;;;;;;;;;;5029735;28;20452;-55
2023/02/09 09:51:10;;;;;;;13.77;8.47;;;;;;;;;;5029238;28;20852;-55
2023/02/09 09:53:36;;;;;;;10.27;7.97;;;;;;;;;;5030104;28;20459;-54
2023/02/09 09:56:04;;;;;;;11.97;8.33;;;;;;;;;;5028980;28;20932;-55
2023/02/09 09:58:31;;;;;;;11.97;8.50;;;;;;;;;;5029419;28;20929;-54
2023/02/09 10:00:58;;;;;;;10.80;8.33;;;;;;;;;;5029884;28;20397;-54
2023/02/09 10:03:24;;;;;;;12.83;9.70;;;;;;;;;;5029605;28;20827;-54
2023/02/09 10:05:55;;;;;;;14.13;9.23;;;;;;;;;;5029727;28;20408;-54
2023/02/09 10:08:25;;;;;;;13.23;8.93;;;;;;;;;;5029733;28;20563;-54
2023/02/09 10:11:00;;;;;;;12.13;8.90;;;;;;;;;;5028856;28;20940;-54
2023/02/09 10:13:26;;;;;;;14.10;9.17;;;;;;;;;;5029156;28;20886;-54
2023/02/09 10:15:53;;;;;;;14.03;9.27;;;;;;;;;;5029301;28;20732;-54
2023/02/09 10:18:25;;;;;;;12.70;9.17;;;;;;;;;;5029678;28;20233;-54
2023/02/09 10:20:55;;;;;;;12.60;9.27;;;;;;;;;;5029221;28;20408;-54
2023/02/09 10:23:26;;;;;;;12.83;9.10;;;;;;;;;;5029853;28;20748;-54
2023/02/09 10:25:58;;;;;;;11.53;9.40;;;;;;;;;;5028349;28;20400;-54
2023/02/09 10:28:25;;;;;;;12.60;8.50;;;;;;;;;;5029272;28;20543;-54
2023/02/09 10:30:53;;;;;;;13.63;9.27;;;;;;;;;;5029291;28;20432;-54
2023/02/09 10:33:19;;;;;;;13.37;8.83;;;;;;;;;;5029640;28;20939;-54
2023/02/09 10:35:53;;;;;;;12.27;8.73;;;;;;;;;;5028977;28;20967;-54
2023/02/09 10:38:21;;;;;;;11.73;8.67;;;;;;;;;;5029586;28;20413;-54
2023/02/09 10:40:47;;;;;;;11.00;8.87;;;;;;;;;;5028326;28;20396;-54
2023/02/09 10:43:42;;;;;;;13.13;9.43;;;;;;;;;;5028976;28;20447;-54
2023/02/09 10:46:12;;;;;;;11.70;9.00;;;;;;;;;;5012712;28;20428;-53
2023/02/09 10:48:40;;;;;;;12.93;8.57;;;;;;;;;;5028994;28;20455;-55
2023/02/09 10:51:07;;;;;;;11.07;8.20;;;;;;;;;;5029222;28;20922;-55
2023/02/09 10:53:36;;;;;;;13.17;8.90;;;;;;;;;;5029388;28;20496;-54
2023/02/09 10:56:02;;;;;;;12.70;9.13;;;;;;;;;;5027800;28;20452;-54
2023/02/09 10:58:35;;;;;;;12.73;9.17;;;;;;;;;;5029114;28;20785;-54
2023/02/09 11:01:10;;;;;;;12.67;9.07;;;;;;;;;;5029033;28;20401;-54
2023/02/09 11:03:37;;;;;;;12.90;9.50;;;;;;;;;;5031901;28;20499;-53
2023/02/09 11:06:10;;;;;;;12.40;8.83;;;;;;;;;;5032505;28;20446;-55
2023/02/09 11:08:42;;;;;;;12.27;9.60;;;;;;;;;;5032676;28;20459;-54
2023/02/09 11:11:15;;;;;;;11.97;9.13;;;;;;;;;;5031646;28;20653;-54
2023/02/09 11:13:41;;;;;;;13.57;8.17;;;;;;;;;;5032509;28;20393;-54
2023/02/09 11:16:26;;;;;;;13.63;9.00;;;;;;;;;;5032787;28;20173;-54
2023/02/09 11:18:56;;;;;;;10.47;8.10;;;;;;;;;;5032589;28;20178;-54
2023/02/09 11:21:26;;;;;;;11.70;8.40;;;;;;;;;;5032464;28;20431;-55
2023/02/09 11:24:00;;;;;;;14.87;10.27;;;;;;;;;;5032984;28;20397;-55
2023/02/09 11:26:38;;;;;;;11.87;8.30;;;;;;;;;;5031413;28;20400;-54
2023/02/09 11:29:42;;;;;;;11.40;8.67;;;;;;;;;;5032109;28;20993;-54
2023/02/09 11:32:08;;;;;;;12.30;9.10;;;;;;;;;;4951790;29;20423;-54
2023/02/09 11:34:37;;;;;;;11.40;8.63;;;;;;;;;;4951506;29;20412;-54
2023/02/09 11:37:11;;;;;;;9.50;8.10;;;;;;;;;;4991147;28;20197;-54
2023/02/09 11:39:36;;;;;;;11.73;9.40;;;;;;;;;;5031614;28;20166;-54
2023/02/09 11:44:53;;;;;;;13.60;9.97;;;;;;;;;;5032233;28;20261;-54
2023/02/09 11:47:29;;;;;;;11.83;8.83;;;;;;;;;;5032301;28;20757;-55
2023/02/09 11:49:59;;;;;;;11.57;8.47;;;;;;;;;;5012264;28;20836;-54
2023/02/09 11:52:31;;;;;;;11.70;8.93;;;;;;;;;;5012333;28;20408;-54
2023/02/09 11:55:01;;;;;;;13.50;9.30;;;;;;;;;;5011425;28;20190;-55
2023/02/09 11:57:35;;;;;;;9.80;7.50;;;;;;;;;;5011298;28;20409;-55
2023/02/09 12:00:04;;;;;;;11.20;8.77;;;;;;;;;;5012163;28;20638;-55
2023/02/09 12:02:29;;;;;;;11.97;8.90;;;;;;;;;;5012000;28;20461;-55
2023/02/09 12:04:55;;;;;;;12.90;9.53;;;;;;;;;;5012113;28;20404;-55
2023/02/09 12:07:30;;;;;;;11.40;8.77;;;;;;;;;;5012071;28;20170;-55
2023/02/09 12:10:08;;;;;;;13.47;9.37;;;;;;;;;;5011358;28;20629;-54
2023/02/09 12:12:43;;;;;;;10.93;8.70;;;;;;;;;;5024136;28;21477;-54
2023/02/09 12:15:12;;;;;;;12.17;9.40;;;;;;;;;;5026900;28;20420;-54
2023/02/09 12:17:38;;;;;;;11.57;9.13;;;;;;;;;;5031276;28;20166;-54
2023/02/09 12:20:05;;;;;;;9.80;8.10;;;;;;;;;;5028631;28;20186;-54
2023/02/09 12:22:34;;;;;;;12.03;8.90;;;;;;;;;;5025720;28;20704;-54
2023/02/09 12:25:12;;;;;;;10.97;8.83;;;;;;;;;;5024837;28;20240;-54
2023/02/09 12:27:43;;;;;;;12.87;9.33;;;;;;;;;;5027773;28;20538;-54
2023/02/09 12:30:28;;;;;;;10.70;8.50;;;;;;;;;;5036694;28;20170;-55
2023/02/09 12:33:14;;;;;;;12.77;8.93;;;;;;;;;;5037705;28;20186;-55
2023/02/09 12:35:40;;;;;;;10.73;8.53;;;;;;;;;;5040644;28;20174;-54
2023/02/09 12:38:08;;;;;;;10.30;8.20;;;;;;;;;;5038352;28;20193;-54
2023/02/09 12:40:37;;;;;;;11.37;7.57;;;;;;;;;;5037999;28;20175;-53
2023/02/09 12:43:12;;;;;;;11.50;7.80;;;;;;;;;;5036496;28;20607;-55
2023/02/09 12:45:39;;;;;;;9.67;7.97;;;;;;;;;;5036299;28;20181;-55
2023/02/09 12:48:08;;;;;;;12.17;8.83;;;;;;;;;;5039732;28;20284;-54
2023/02/09 12:50:49;;;;;;;11.03;8.37;;;;;;;;;;5032335;28;20528;-55
2023/02/09 12:53:21;;;;;;;11.17;7.63;;;;;;;;;;5023635;28;20226;-54
2023/02/09 12:55:58;;;;;;;9.00;7.67;;;;;;;;;;5027770;28;20626;-54
2023/02/09 12:58:53;;;;;;;12.57;8.27;;;;;;;;;;5015799;28;20645;-54
2023/02/09 13:01:21;;;;;;;14.73;10.03;;;;;;;;;;5010768;28;20221;-54
2023/02/09 13:03:47;;;;;;;11.23;8.20;;;;;;;;;;5038327;28;20263;-54
2023/02/09 13:06:32;;;;;;;11.93;8.40;;;;;;;;;;5036434;28;20234;-54
2023/02/09 13:09:01;;;;;;;12.57;8.70;;;;;;;;;;5030613;28;20326;-54
2023/02/09 13:11:38;;;;;;;11.03;8.13;;;;;;;;;;5034191;28;20225;-55
2023/02/09 13:14:08;;;;;;;9.17;7.53;;;;;;;;;;5031296;28;20606;-54
2023/02/09 13:16:39;;;;;;;12.80;8.30;;;;;;;;;;5033915;28;20177;-54
2023/02/09 13:19:23;;;;;;;10.20;8.20;;;;;;;;;;5028638;28;20188;-55
2023/02/09 13:21:56;;;;;;;12.60;8.73;;;;;;;;;;5023746;28;20167;-55
2023/02/09 13:24:32;;;;;;;9.03;7.67;;;;;;;;;;5012883;28;20186;-55
2023/02/09 13:26:58;;;;;;;11.00;8.67;;;;;;;;;;5022266;28;20190;-54
2023/02/09 13:29:26;;;;;;;10.03;7.67;;;;;;;;;;5013033;28;20202;-54
2023/02/09 13:31:58;;;;;;;10.27;8.33;;;;;;;;;;5024137;28;20178;-55
2023/02/09 13:34:24;;;;;;;9.83;7.93;;;;;;;;;;5012920;28;20193;-54
2023/02/09 13:37:13;;;;;;;11.77;8.20;;;;;;;;;;5025066;28;20637;-55
2023/02/09 13:39:40;;;;;;;10.63;8.40;;;;;;;;;;5027293;28;20707;-54
2023/02/09 13:42:23;;;;;;;11.47;8.10;;;;;;;;;;5023340;28;20202;-54
2023/02/09 13:44:50;;;;;;;9.23;7.67;;;;;;;;;;5028140;28;20657;-55
2023/02/09 13:47:16;;;;;;;10.03;7.80;;;;;;;;;;5022542;28;20181;-55
2023/02/09 13:49:43;;;;;;;9.40;7.27;;;;;;;;;;5014873;28;20224;-55
2023/02/09 13:52:10;;;;;;;8.67;6.73;;;;;;;;;;5029490;28;20188;-53
2023/02/09 13:54:36;;;;;;;9.23;7.57;;;;;;;;;;5025100;28;20181;-53
2023/02/09 13:57:02;;;;;;;10.17;7.63;;;;;;;;;;5024716;28;20213;-55
2023/02/09 13:59:29;;;;;;;9.63;8.10;;;;;;;;;;5027035;28;20185;-55
2023/02/09 14:01:55;;;;;;;10.80;7.03;;;;;;;;;;5023486;28;20217;-56
2023/02/09 14:04:24;;;;;;;11.00;7.20;;;;;;;;;;5025005;28;20272;-54
2023/02/09 14:06:52;;;;;;;16.90;7.40;;;;;;;;;;5028097;28;20185;-54
2023/02/09 14:09:28;;;;;;;10.67;8.20;;;;;;;;;;5026948;28;20734;-55
2023/02/09 14:11:56;;;;;;;10.57;7.77;;;;;;;;;;5030666;28;20190;-55
2023/02/09 14:16:05;;;;;;;10.87;7.13;;;;;;;;;;5034614;28;20174;-54
2023/02/09 14:17:24;;;;;;;10.77;7.80;;;;;;;;;;5024491;28;20592;-55
2023/02/09 14:19:51;;;;;;;12.67;7.80;;;;;;;;;;5029540;28;20207;-54
2023/02/09 14:22:26;;;;;;;8.53;7.30;;;;;;;;;;5029460;28;20169;-55
2023/02/09 14:24:52;;;;;;;12.03;7.87;;;;;;;;;;5028978;28;20169;-55
2023/02/09 14:27:21;;;;;;;10.73;7.60;;;;;;;;;;5028956;28;20177;-55
2023/02/09 14:29:48;;;;;;;9.00;6.73;;;;;;;;;;5013391;28;20249;-55
2023/02/09 14:32:34;;;;;;;10.67;7.53;;;;;;;;;;5009714;28;20171;-54
2023/02/09 14:35:19;;;;;;;10.87;6.93;;;;;;;;;;5021603;28;20578;-54
2023/02/09 14:37:45;;;;;;;9.47;7.13;;;;;;;;;;5030629;28;20708;-55
2023/02/09 14:40:11;;;;;;;8.43;6.90;;;;;;;;;;5015551;28;20178;-55
2023/02/09 14:42:54;;;;;;;10.70;7.23;;;;;;;;;;5028866;28;20186;-54
2023/02/09 14:45:26;;;;;;;9.63;7.37;;;;;;;;;;5033002;28;20189;-55
2023/02/09 14:47:52;;;;;;;9.10;6.43;;;;;;;;;;5028582;28;20176;-54
2023/02/09 14:50:20;;;;;;;8.77;7.00;;;;;;;;;;5033176;28;20173;-55
2023/02/09 14:52:47;;;;;;;9.17;6.97;;;;;;;;;;5027930;28;20183;-55
2023/02/09 14:55:16;;;;;;;7.73;6.23;;;;;;;;;;5030334;28;20251;-55
2023/02/09 14:57:42;;;;;;;9.13;7.30;;;;;;;;;;5021986;28;20578;-53
2023/02/09 15:00:20;;;;;;;8.90;7.03;;;;;;;;;;5027655;28;20226;-54